Weather at Philadelphia International Airport

Public forecast

Using degrees Fahrenheit for public forecast. Weather courtesy of forecast.io.

Current aviation weather report (METAR) for Philadelphia International Airport

Retrieved 2021/07/29 07:54 UTC (11 minutes ago):

KPHL 290754Z 13003KT 10SM OVC090 22/19 A3002 RMK AO2 SLP164 T02170194

Aviation forecast (TAF) for Philadelphia International Airport

Retrieved 2021/07/29 06:49 UTC (1 hour ago):

TAF KPHL 290539Z 2906/3012 16005KT P6SM FEW080 SCT120 FM291100 17004KT P6SM VCSH BKN025 TEMPO 2912/2915 BKN015 FM291500 18006KT P6SM BKN020 FM292000 21010KT P6SM -SHRA VCTS BKN045CB TEMPO 2922/3002 VRB10G30KT 2SM TSRA OVC050CB FM300500 26008KT P6SM BKN020